sensor_id;sensor_type;location;lat;lon;timestamp;pressure;altitude;pressure_sealevel;temperature;humidity
22582;BME280;47125;48.542;9.052;2023-02-03T00:01:20;97298.34;;;5.65;84.80
22582;BME280;47125;48.542;9.052;2023-02-03T00:11:23;97308.94;;;5.65;84.94
22582;BME280;47125;48.542;9.052;2023-02-03T00:21:27;97304.63;;;5.64;84.38
22582;BME280;47125;48.542;9.052;2023-02-03T00:31:29;97308.25;;;5.63;84.73
22582;BME280;47125;48.542;9.052;2023-02-03T00:41:34;97311.44;;;5.58;86.30
22582;BME280;47125;48.542;9.052;2023-02-03T00:51:36;97315.72;;;5.67;87.11
22582;BME280;47125;48.542;9.052;2023-02-03T01:01:40;97312.28;;;5.59;88.24
22582;BME280;47125;48.542;9.052;2023-02-03T01:11:42;97313.97;;;5.51;88.26
22582;BME280;47125;48.542;9.052;2023-02-03T01:21:46;97321.09;;;5.51;88.25
22582;BME280;47125;48.542;9.052;2023-02-03T01:31:49;97294.88;;;5.56;88.53
22582;BME280;47125;48.542;9.052;2023-02-03T01:41:57;97274.91;;;5.45;88.94
22582;BME280;47125;48.542;9.052;2023-02-03T01:51:59;97272.56;;;5.50;88.72
22582;BME280;47125;48.542;9.052;2023-02-03T02:02:04;97243.06;;;5.53;88.07
22582;BME280;47125;48.542;9.052;2023-02-03T02:12:08;97278.47;;;5.61;87.66
22582;BME280;47125;48.542;9.052;2023-02-03T02:22:12;97267.34;;;5.65;87.28
22582;BME280;47125;48.542;9.052;2023-02-03T02:32:24;97211.88;;;5.64;86.91
22582;BME280;47125;48.542;9.052;2023-02-03T02:42:31;97203.88;;;5.49;87.55
22582;BME280;47125;48.542;9.052;2023-02-03T02:52:41;97205.28;;;5.60;86.89
22582;BME280;47125;48.542;9.052;2023-02-03T03:02:45;97162.72;;;5.61;86.46
22582;BME280;47125;48.542;9.052;2023-02-03T03:12:49;97173.19;;;5.54;85.92
22582;BME280;47125;48.542;9.052;2023-02-03T03:22:55;97185.53;;;5.62;85.55
22582;BME280;47125;48.542;9.052;2023-02-03T03:33:00;97178.41;;;5.63;85.02
22582;BME280;47125;48.542;9.052;2023-02-03T03:43:04;97170.78;;;5.68;84.81
22582;BME280;47125;48.542;9.052;2023-02-03T03:53:10;97208.41;;;5.63;84.49
22582;BME280;47125;48.542;9.052;2023-02-03T04:03:14;97233.00;;;5.72;84.23
22582;BME280;47125;48.542;9.052;2023-02-03T04:13:23;97248.56;;;5.75;83.82
22582;BME280;47125;48.542;9.052;2023-02-03T04:23:25;97257.34;;;5.75;83.74
22582;BME280;47125;48.542;9.052;2023-02-03T04:33:29;97255.81;;;5.81;83.17
22582;BME280;47125;48.542;9.052;2023-02-03T04:43:32;97258.34;;;5.74;83.62
22582;BME280;47125;48.542;9.052;2023-02-03T04:53:36;97223.59;;;5.69;83.64
22582;BME280;47125;48.542;9.052;2023-02-03T05:03:38;97204.88;;;5.71;83.46
22582;BME280;47125;48.542;9.052;2023-02-03T05:13:42;97206.88;;;5.69;83.56
22582;BME280;47125;48.542;9.052;2023-02-03T05:23:45;97200.50;;;5.55;84.49
22582;BME280;47125;48.542;9.052;2023-02-03T05:33:49;97223.13;;;5.66;83.99
22582;BME280;47125;48.542;9.052;2023-02-03T05:43:52;97259.50;;;5.72;83.49
22582;BME280;47125;48.542;9.052;2023-02-03T05:53:56;97269.47;;;5.70;83.89
22582;BME280;47125;48.542;9.052;2023-02-03T06:03:58;97250.63;;;5.65;83.09
22582;BME280;47125;48.542;9.052;2023-02-03T06:14:02;97237.38;;;5.65;82.84
22582;BME280;47125;48.542;9.052;2023-02-03T06:24:05;97246.84;;;5.59;82.65
22582;BME280;47125;48.542;9.052;2023-02-03T06:34:12;97221.59;;;5.48;82.60
22582;BME280;47125;48.542;9.052;2023-02-03T06:44:15;97213.34;;;5.43;82.73
22582;BME280;47125;48.542;9.052;2023-02-03T06:54:19;97230.38;;;5.41;84.10
22582;BME280;47125;48.542;9.052;2023-02-03T07:04:22;97200.38;;;5.48;84.30
22582;BME280;47125;48.542;9.052;2023-02-03T07:14:26;97205.97;;;5.53;84.36
22582;BME280;47125;48.542;9.052;2023-02-03T07:24:29;97204.22;;;5.46;83.70
22582;BME280;47125;48.542;9.052;2023-02-03T07:34:37;97198.97;;;5.61;83.31
22582;BME280;47125;48.542;9.052;2023-02-03T07:44:39;97196.50;;;5.59;83.17
22582;BME280;47125;48.542;9.052;2023-02-03T07:54:43;97195.69;;;5.59;84.52
22582;BME280;47125;48.542;9.052;2023-02-03T08:04:46;97228.06;;;5.69;84.75
22582;BME280;47125;48.542;9.052;2023-02-03T08:14:50;97258.69;;;5.71;84.66
22582;BME280;47125;48.542;9.052;2023-02-03T08:24:52;97263.81;;;5.73;84.92
22582;BME280;47125;48.542;9.052;2023-02-03T08:34:56;97257.28;;;5.83;85.51
22582;BME280;47125;48.542;9.052;2023-02-03T08:44:59;97279.66;;;5.81;85.49
22582;BME280;47125;48.542;9.052;2023-02-03T08:55:06;97274.00;;;5.84;86.17
22582;BME280;47125;48.542;9.052;2023-02-03T09:05:09;97286.94;;;5.87;85.83
22582;BME280;47125;48.542;9.052;2023-02-03T09:15:17;97273.88;;;5.85;85.73
22582;BME280;47125;48.542;9.052;2023-02-03T09:25:20;97248.13;;;5.94;85.96
22582;BME280;47125;48.542;9.052;2023-02-03T09:35:24;97250.59;;;6.18;84.42
22582;BME280;47125;48.542;9.052;2023-02-03T09:45:29;97264.38;;;6.36;82.93
22582;BME280;47125;48.542;9.052;2023-02-03T09:55:34;97253.66;;;6.44;82.30
22582;BME280;47125;48.542;9.052;2023-02-03T10:05:56;97277.47;;;6.67;81.49
22582;BME280;47125;48.542;9.052;2023-02-03T10:16:10;97243.63;;;6.84;80.00
22582;BME280;47125;48.542;9.052;2023-02-03T10:26:17;97237.03;;;6.80;80.60
22582;BME280;47125;48.542;9.052;2023-02-03T10:36:22;97241.53;;;6.94;79.56
22582;BME280;47125;48.542;9.052;2023-02-03T10:46:32;97258.56;;;6.85;79.58
22582;BME280;47125;48.542;9.052;2023-02-03T10:56:38;97269.63;;;6.74;79.97
22582;BME280;47125;48.542;9.052;2023-02-03T11:06:42;97231.25;;;6.61;80.43
22582;BME280;47125;48.542;9.052;2023-02-03T11:16:56;97194.09;;;6.61;80.38
22582;BME280;47125;48.542;9.052;2023-02-03T11:26:59;97181.13;;;6.81;79.38
22582;BME280;47125;48.542;9.052;2023-02-03T11:47:23;97174.41;;;6.85;78.49
22582;BME280;47125;48.542;9.052;2023-02-03T11:57:27;97183.31;;;6.78;78.10
22582;BME280;47125;48.542;9.052;2023-02-03T12:07:40;97194.56;;;6.80;78.62
22582;BME280;47125;48.542;9.052;2023-02-03T12:28:14;97165.72;;;6.77;79.91
22582;BME280;47125;48.542;9.052;2023-02-03T12:38:35;97156.56;;;6.79;79.14
22582;BME280;47125;48.542;9.052;2023-02-03T12:48:44;97152.25;;;6.93;78.46
22582;BME280;47125;48.542;9.052;2023-02-03T12:58:49;97136.88;;;6.88;77.34
22582;BME280;47125;48.542;9.052;2023-02-03T13:09:01;97127.72;;;6.91;77.62
22582;BME280;47125;48.542;9.052;2023-02-03T13:19:05;97091.56;;;6.90;77.66
22582;BME280;47125;48.542;9.052;2023-02-03T13:29:16;97083.84;;;6.95;78.09
22582;BME280;47125;48.542;9.052;2023-02-03T13:39:30;97082.84;;;6.96;77.52
22582;BME280;47125;48.542;9.052;2023-02-03T13:49:35;97115.63;;;7.03;77.29
22582;BME280;47125;48.542;9.052;2023-02-03T13:59:40;97104.63;;;7.06;77.04
22582;BME280;47125;48.542;9.052;2023-02-03T14:09:47;97085.00;;;7.07;76.91
22582;BME280;47125;48.542;9.052;2023-02-03T14:19:55;97101.97;;;7.06;77.07
22582;BME280;47125;48.542;9.052;2023-02-03T14:30:03;97129.16;;;7.08;77.30
22582;BME280;47125;48.542;9.052;2023-02-03T14:40:16;97147.81;;;7.14;77.00
22582;BME280;47125;48.542;9.052;2023-02-03T14:50:27;97138.94;;;7.07;77.63
22582;BME280;47125;48.542;9.052;2023-02-03T15:00:34;97138.13;;;7.07;77.80
22582;BME280;47125;48.542;9.052;2023-02-03T15:10:41;97139.22;;;6.98;78.57
22582;BME280;47125;48.542;9.052;2023-02-03T15:20:45;97144.66;;;6.90;79.42
22582;BME280;47125;48.542;9.052;2023-02-03T15:30:50;97148.53;;;6.87;80.60
22582;BME280;47125;48.542;9.052;2023-02-03T15:40:54;97130.31;;;6.84;81.02
22582;BME280;47125;48.542;9.052;2023-02-03T15:51:01;97133.78;;;6.85;80.60
22582;BME280;47125;48.542;9.052;2023-02-03T16:01:07;97152.38;;;6.85;80.68
22582;BME280;47125;48.542;9.052;2023-02-03T16:11:22;97154.38;;;6.83;80.67
22582;BME280;47125;48.542;9.052;2023-02-03T16:42:19;97133.59;;;6.72;82.33
22582;BME280;47125;48.542;9.052;2023-02-03T16:52:39;97139.28;;;6.69;82.65
22582;BME280;47125;48.542;9.052;2023-02-03T17:02:43;97142.31;;;6.65;82.67
22582;BME280;47125;48.542;9.052;2023-02-03T17:12:45;97156.88;;;6.70;82.59
22582;BME280;47125;48.542;9.052;2023-02-03T17:22:49;97157.13;;;6.75;82.16
22582;BME280;47125;48.542;9.052;2023-02-03T17:32:54;97180.56;;;6.71;82.18
22582;BME280;47125;48.542;9.052;2023-02-03T17:43:01;97162.44;;;6.75;82.39
22582;BME280;47125;48.542;9.052;2023-02-03T17:53:22;97175.44;;;6.70;82.92
22582;BME280;47125;48.542;9.052;2023-02-03T18:03:26;97194.84;;;6.70;83.79
22582;BME280;47125;48.542;9.052;2023-02-03T18:13:28;97204.72;;;6.61;85.50
22582;BME280;47125;48.542;9.052;2023-02-03T18:23:34;97223.19;;;6.55;87.56
22582;BME280;47125;48.542;9.052;2023-02-03T18:33:37;97239.31;;;6.53;88.83
22582;BME280;47125;48.542;9.052;2023-02-03T18:43:41;97229.50;;;6.39;90.49
22582;BME280;47125;48.542;9.052;2023-02-03T18:53:44;97221.09;;;6.36;91.65
22582;BME280;47125;48.542;9.052;2023-02-03T19:03:50;97218.06;;;6.39;92.36
22582;BME280;47125;48.542;9.052;2023-02-03T19:13:53;97206.16;;;6.35;92.92
22582;BME280;47125;48.542;9.052;2023-02-03T19:23:57;97201.78;;;6.42;92.30
22582;BME280;47125;48.542;9.052;2023-02-03T19:34:00;97204.06;;;6.30;92.36
22582;BME280;47125;48.542;9.052;2023-02-03T19:44:05;97214.84;;;6.29;93.34
22582;BME280;47125;48.542;9.052;2023-02-03T19:54:09;97208.63;;;6.22;94.54
22582;BME280;47125;48.542;9.052;2023-02-03T20:04:13;97219.78;;;6.32;94.62
22582;BME280;47125;48.542;9.052;2023-02-03T20:14:16;97231.50;;;6.37;94.31
22582;BME280;47125;48.542;9.052;2023-02-03T20:34:39;97251.47;;;6.33;94.68
22582;BME280;47125;48.542;9.052;2023-02-03T20:44:41;97255.00;;;6.26;95.34
22582;BME280;47125;48.542;9.052;2023-02-03T20:54:45;97238.34;;;6.32;95.42
22582;BME280;47125;48.542;9.052;2023-02-03T21:04:48;97230.22;;;6.33;95.72
22582;BME280;47125;48.542;9.052;2023-02-03T21:15:01;97239.09;;;6.40;95.26
22582;BME280;47125;48.542;9.052;2023-02-03T21:25:05;97249.16;;;6.30;95.30
22582;BME280;47125;48.542;9.052;2023-02-03T21:35:19;97248.34;;;6.44;94.71
22582;BME280;47125;48.542;9.052;2023-02-03T21:45:32;97216.41;;;6.38;94.66
22582;BME280;47125;48.542;9.052;2023-02-03T21:55:38;97231.09;;;6.48;93.96
22582;BME280;47125;48.542;9.052;2023-02-03T22:05:41;97242.22;;;6.44;93.64
22582;BME280;47125;48.542;9.052;2023-02-03T22:15:44;97254.88;;;6.56;92.86
22582;BME280;47125;48.542;9.052;2023-02-03T22:25:49;97252.94;;;6.50;92.77
22582;BME280;47125;48.542;9.052;2023-02-03T22:35:53;97259.19;;;6.57;92.11
22582;BME280;47125;48.542;9.052;2023-02-03T22:45:56;97277.78;;;6.57;92.05
22582;BME280;47125;48.542;9.052;2023-02-03T22:56:00;97282.06;;;6.58;92.48
22582;BME280;47125;48.542;9.052;2023-02-03T23:06:02;97298.28;;;6.63;92.09
22582;BME280;47125;48.542;9.052;2023-02-03T23:16:06;97296.00;;;6.60;92.05
22582;BME280;47125;48.542;9.052;2023-02-03T23:26:09;97297.91;;;6.67;91.85
22582;BME280;47125;48.542;9.052;2023-02-03T23:36:13;97281.06;;;6.59;92.70
22582;BME280;47125;48.542;9.052;2023-02-03T23:46:15;97280.50;;;6.64;92.90
22582;BME280;47125;48.542;9.052;2023-02-03T23:56:19;97276.56;;;6.60;94.14
